Santa Rita — DIOY2 — position and weather

sailwx.info

Track history (hours):
 
Tides and Currents Weather Stations Pressure Air Temp Water Temp Dewpoint Dewpoint Depression Visibility Wind Speed Wind Dir Waves Ship Positions

Santa Rita

Last reported at 2017-Jan-02 12:23 UTC. Time now 2017-Jan-23 12:51 UTC.
Position N 30°34' E 122°13'.
Warning: this ship's position is 21 days out of date.

Length 300 m; draft 12.5 m.

Type: Ship (hazmat cat A). MMSI: 218670000.

Date/timePositionNaut miles runAvg speedWind from/ knotsBaromVisibWave heightAir tempDewpointWater temp
2017-Jan-02 12:23N 30°34' E 122°13'16 1.4
2017-Jan-02 00:29N 30°28' E 122°30'0 0.0
2017-Jan-01 21:23N 30°28' E 122°31'  
2016-Dec-29 02:16N 24°15' E 118°15'912.6
2016-Dec-29 01:33N 24°22' E 118°09'9 6.8
2016-Dec-29 00:14N 24°27' E 118°00'0 0.0
2016-Dec-28 23:29N 24°27' E 118°00'0 0.0
2016-Dec-28 19:05N 24°27' E 118°00'0 0.0
2016-Dec-28 18:32N 24°27' E 118°00'0 0.0
2016-Dec-28 17:28N 24°27' E 118°00'0 0.0
2016-Dec-28 16:28N 24°27' E 118°00'5 5.0
2016-Dec-28 15:33N 24°25' E 118°05'1312.6
2016-Dec-28 14:33N 24°16' E 118°15'  
2016-Dec-25 14:32N 23°44' E 118°09'1616.1
2016-Dec-25 13:33N 23°53' E 118°23'19 0.4
2016-Dec-23 12:32N 23°40' E 118°09'  
Track history (hours):
 
Tides and Currents Weather Stations Pressure Air Temp Water Temp Dewpoint Dewpoint Depression Visibility Wind Speed Wind Dir Waves Ship Positions

Santa Rita

Last reported at 2017-Jan-02 12:23 UTC. Time now 2017-Jan-23 12:51 UTC.
Position N 30°34' E 122°13'.
Warning: this ship's position is 21 days out of date.

Length 300 m; draft 12.5 m.

Type: Ship (hazmat cat A). MMSI: 218670000.

Date/timePositionNaut miles runAvg speedWind from/ knotsBaromVisibWave heightAir tempDewpointWater temp
2017-Jan-02 12:23N 30°34' E 122°13'16 1.4
2017-Jan-02 00:29N 30°28' E 122°30'0 0.0
2017-Jan-01 21:23N 30°28' E 122°31'  
2016-Dec-29 02:16N 24°15' E 118°15'912.6
2016-Dec-29 01:33N 24°22' E 118°09'9 6.8
2016-Dec-29 00:14N 24°27' E 118°00'0 0.0
2016-Dec-28 23:29N 24°27' E 118°00'0 0.0
2016-Dec-28 19:05N 24°27' E 118°00'0 0.0
2016-Dec-28 18:32N 24°27' E 118°00'0 0.0
2016-Dec-28 17:28N 24°27' E 118°00'0 0.0
2016-Dec-28 16:28N 24°27' E 118°00'5 5.0
2016-Dec-28 15:33N 24°25' E 118°05'1312.6
2016-Dec-28 14:33N 24°16' E 118°15'  
2016-Dec-25 14:32N 23°44' E 118°09'1616.1
2016-Dec-25 13:33N 23°53' E 118°23'19 0.4
2016-Dec-23 12:32N 23°40' E 118°09'  

Dump ship's entire track history